createdAt,value
2023-01-13T00:01:34.031Z,0.80
2023-01-13T00:04:01.619Z,1.35
2023-01-13T00:06:29.755Z,1.08
2023-01-13T00:08:58.103Z,0.65
2023-01-13T00:11:26.594Z,0.85
2023-01-13T00:13:55.240Z,0.43
2023-01-13T00:16:22.615Z,2.45
2023-01-13T00:21:36.075Z,0.82
2023-01-13T00:24:03.489Z,1.30
2023-01-13T00:26:33.967Z,1.35
2023-01-13T00:29:03.653Z,4.03
2023-01-13T00:31:31.171Z,3.20
2023-01-13T00:34:00.410Z,1.20
2023-01-13T00:36:28.919Z,0.65
2023-01-13T00:38:56.267Z,1.60
2023-01-13T00:41:25.523Z,1.00
2023-01-13T00:43:53.267Z,1.35
2023-01-13T00:46:22.204Z,0.70
2023-01-13T00:48:50.118Z,1.08
2023-01-13T00:51:19.927Z,0.50
2023-01-13T00:53:50.217Z,0.93
2023-01-13T00:56:34.039Z,1.20
2023-01-13T00:59:06.010Z,2.03
2023-01-13T01:01:33.757Z,1.92
2023-01-13T01:04:01.399Z,2.22
2023-01-13T01:06:28.968Z,0.82
2023-01-13T01:08:56.969Z,1.33
2023-01-13T01:11:28.130Z,1.42
2023-01-13T01:13:57.278Z,1.60
2023-01-13T01:16:26.703Z,1.13
2023-01-13T01:18:55.100Z,1.17
2023-01-13T01:21:24.821Z,1.52
2023-01-13T01:23:53.243Z,1.10
2023-01-13T01:26:25.596Z,1.77
2023-01-13T01:28:54.204Z,1.48
2023-01-13T01:31:27.224Z,2.10
2023-01-13T01:33:55.455Z,1.27
2023-01-13T01:36:24.427Z,0.65
2023-01-13T01:38:51.905Z,1.88
2023-01-13T01:41:25.588Z,1.65
2023-01-13T01:44:03.059Z,1.55
2023-01-13T01:46:41.848Z,0.93
2023-01-13T01:49:13.339Z,0.32
2023-01-13T01:51:47.704Z,1.05
2023-01-13T01:54:22.366Z,1.95
2023-01-13T01:56:50.726Z,1.20
2023-01-13T01:59:18.504Z,1.10
2023-01-13T02:01:46.345Z,0.93
2023-01-13T02:04:20.870Z,0.73
2023-01-13T02:06:50.417Z,0.82
2023-01-13T02:09:18.013Z,1.05
2023-01-13T02:12:04.041Z,1.67
2023-01-13T02:14:33.776Z,2.08
2023-01-13T02:17:21.066Z,0.73
2023-01-13T02:19:54.587Z,0.88
2023-01-13T02:22:58.400Z,1.85
2023-01-13T02:25:47.812Z,1.02
2023-01-13T02:29:03.958Z,1.40
2023-01-13T02:31:44.817Z,1.95
2023-01-13T02:34:15.367Z,1.25
2023-01-13T02:36:55.762Z,1.15
2023-01-13T02:39:33.594Z,1.52
2023-01-13T02:42:34.573Z,0.90
2023-01-13T02:45:18.202Z,0.82
2023-01-13T02:47:50.444Z,2.00
2023-01-13T02:50:30.913Z,1.27
2023-01-13T02:53:08.902Z,1.40
2023-01-13T02:55:47.064Z,1.00
2023-01-13T02:58:19.306Z,1.67
2023-01-13T03:00:49.028Z,0.95
2023-01-13T03:03:16.785Z,1.73
2023-01-13T03:05:46.836Z,1.67
2023-01-13T03:08:34.053Z,2.60
2023-01-13T03:11:08.935Z,2.03
2023-01-13T03:14:08.861Z,1.38
2023-01-13T03:17:43.938Z,1.00
2023-01-13T03:20:29.310Z,1.70
2023-01-13T03:23:22.806Z,0.90
2023-01-13T03:25:59.574Z,1.00
2023-01-13T03:28:37.240Z,1.40
2023-01-13T03:31:10.506Z,1.35
2023-01-13T03:33:55.237Z,1.73
2023-01-13T03:36:26.510Z,0.80
2023-01-13T03:39:17.891Z,1.23
2023-01-13T03:41:53.662Z,1.25
2023-01-13T03:44:31.356Z,1.90
2023-01-13T03:47:18.639Z,1.73
2023-01-13T03:49:49.101Z,1.42
2023-01-13T03:52:26.091Z,1.23
2023-01-13T03:58:24.901Z,0.95
2023-01-13T04:04:38.862Z,1.00
2023-01-13T04:07:33.431Z,1.00
2023-01-13T04:10:05.406Z,1.17
2023-01-13T04:13:03.943Z,1.20
2023-01-13T04:15:35.423Z,0.98
2023-01-13T04:18:11.846Z,1.67
2023-01-13T04:21:07.309Z,1.02
2023-01-13T04:23:35.613Z,2.03
2023-01-13T04:28:48.556Z,1.52
2023-01-13T04:31:16.143Z,1.45
2023-01-13T04:33:43.995Z,1.42
2023-01-13T04:36:11.392Z,1.73
2023-01-13T04:38:38.989Z,1.70
2023-01-13T04:41:06.675Z,1.90
2023-01-13T04:43:34.279Z,1.77
2023-01-13T04:46:04.886Z,1.13
2023-01-13T04:48:32.848Z,1.60
2023-01-13T04:51:02.032Z,1.55
2023-01-13T04:53:29.729Z,1.45
2023-01-13T04:55:58.353Z,1.13
2023-01-13T04:58:26.562Z,2.17
2023-01-13T05:00:55.639Z,0.98
2023-01-13T05:03:24.883Z,0.88
2023-01-13T05:05:54.286Z,1.45
2023-01-13T05:08:21.900Z,0.90
2023-01-13T05:10:50.260Z,1.67
2023-01-13T05:13:38.214Z,2.58
2023-01-13T05:16:25.110Z,1.90
2023-01-13T05:18:52.907Z,1.92
2023-01-13T05:21:39.604Z,1.30
2023-01-13T05:24:27.990Z,1.90
2023-01-13T05:26:56.425Z,1.48
2023-01-13T05:29:24.639Z,1.70
2023-01-13T05:31:53.312Z,1.35
2023-01-13T05:34:21.352Z,1.27
2023-01-13T05:36:49.254Z,2.13
2023-01-13T05:42:19.337Z,1.13
2023-01-13T05:44:48.435Z,1.20
2023-01-13T05:47:16.677Z,1.35
2023-01-13T05:49:46.917Z,0.70
2023-01-13T05:52:16.613Z,1.30
2023-01-13T05:54:44.544Z,3.13
2023-01-13T05:57:12.588Z,1.40
2023-01-13T05:59:40.282Z,1.40
2023-01-13T06:02:08.032Z,0.80
2023-01-13T06:04:37.196Z,1.38
2023-01-13T06:07:06.740Z,0.98
2023-01-13T06:09:34.485Z,1.02
2023-01-13T06:12:02.587Z,1.52
2023-01-13T06:14:40.539Z,1.55
2023-01-13T06:17:16.431Z,2.65
2023-01-13T06:19:47.824Z,2.70
2023-01-13T06:22:22.523Z,3.20
2023-01-13T06:24:55.704Z,1.30
2023-01-13T06:27:27.714Z,1.00
2023-01-13T06:30:02.153Z,0.77
2023-01-13T06:32:40.005Z,0.85
2023-01-13T06:35:15.932Z,2.03
2023-01-13T06:37:53.572Z,2.33
2023-01-13T06:40:22.407Z,1.00
2023-01-13T06:45:55.704Z,0.88
2023-01-13T06:48:36.104Z,1.30
2023-01-13T06:51:07.854Z,2.25
2023-01-13T06:53:35.911Z,1.85
2023-01-13T06:56:04.171Z,1.70
2023-01-13T06:58:32.589Z,1.63
2023-01-13T07:01:01.431Z,1.85
2023-01-13T07:03:29.884Z,1.15
2023-01-13T07:05:59.549Z,0.88
2023-01-13T07:08:28.509Z,1.55
2023-01-13T07:10:56.102Z,2.28
2023-01-13T07:13:42.200Z,1.58
2023-01-13T07:16:10.696Z,2.25
2023-01-13T07:18:40.012Z,2.13
2023-01-13T07:21:14.251Z,1.90
2023-01-13T07:23:43.429Z,1.40
2023-01-13T07:27:01.836Z,1.50
2023-01-13T07:29:33.998Z,2.28
2023-01-13T07:32:07.666Z,2.17
2023-01-13T07:34:58.248Z,2.00
2023-01-13T07:37:29.729Z,1.67
2023-01-13T07:43:08.237Z,2.28
2023-01-13T07:45:36.288Z,2.03
2023-01-13T07:48:05.104Z,2.42
2023-01-13T07:50:35.363Z,2.00
2023-01-13T07:53:32.536Z,1.10
2023-01-13T07:56:03.150Z,1.77
2023-01-13T07:58:31.465Z,1.50
2023-01-13T08:00:59.390Z,2.13
2023-01-13T08:03:29.061Z,1.25
2023-01-13T08:05:57.235Z,3.13
2023-01-13T08:08:27.939Z,1.52
2023-01-13T08:11:00.238Z,1.80
2023-01-13T08:13:28.542Z,2.67
2023-01-13T08:16:02.956Z,1.63
2023-01-13T08:18:32.731Z,1.35
2023-01-13T08:23:36.534Z,1.83
2023-01-13T08:29:24.589Z,1.25
2023-01-13T08:32:01.174Z,2.28
2023-01-13T08:38:26.488Z,1.25
2023-01-13T08:41:14.066Z,1.52
2023-01-13T08:43:42.157Z,1.35
2023-01-13T08:46:10.087Z,1.40
2023-01-13T08:48:39.659Z,1.85
2023-01-13T08:53:53.401Z,1.45
2023-01-13T08:59:11.105Z,1.38
2023-01-13T09:01:46.310Z,1.13
2023-01-13T09:04:23.770Z,1.35
2023-01-13T09:06:52.282Z,1.58
2023-01-13T09:09:21.889Z,1.83
2023-01-13T09:12:11.232Z,2.00
2023-01-13T09:14:45.267Z,2.45
2023-01-13T09:17:15.539Z,2.65
2023-01-13T09:19:47.670Z,2.20
2023-01-13T09:22:20.368Z,1.67
2023-01-13T09:24:49.428Z,1.77
2023-01-13T09:27:20.536Z,1.45
2023-01-13T09:29:54.608Z,1.35
2023-01-13T09:32:25.851Z,2.50
2023-01-13T09:35:02.977Z,1.70
2023-01-13T09:37:37.902Z,1.73
2023-01-13T09:40:11.806Z,1.60
2023-01-13T09:43:02.294Z,1.35
2023-01-13T09:45:38.013Z,0.98
2023-01-13T09:48:05.964Z,1.42
2023-01-13T09:50:51.523Z,1.13
2023-01-13T09:53:30.516Z,1.83
2023-01-13T09:55:58.776Z,1.48
2023-01-13T09:58:27.442Z,2.10
2023-01-13T10:01:00.882Z,1.67
2023-01-13T10:03:30.730Z,1.65
2023-01-13T10:06:16.295Z,1.27
2023-01-13T10:08:47.688Z,1.23
2023-01-13T10:15:04.136Z,1.67
2023-01-13T10:17:52.998Z,1.50
2023-01-13T10:20:34.472Z,1.02
2023-01-13T10:23:24.009Z,1.85
2023-01-13T10:26:01.536Z,1.42
2023-01-13T10:31:15.934Z,4.95
2023-01-13T10:33:46.793Z,1.25
2023-01-13T10:36:23.473Z,1.70
2023-01-13T10:38:52.013Z,1.25
2023-01-13T10:41:25.596Z,1.55
2023-01-13T10:43:53.486Z,2.15
2023-01-13T10:46:21.636Z,1.35
2023-01-13T10:48:56.366Z,1.20
2023-01-13T10:51:28.495Z,0.88
2023-01-13T10:54:00.883Z,1.50
2023-01-13T10:56:33.819Z,1.55
2023-01-13T10:59:20.544Z,2.33
2023-01-13T11:02:13.051Z,0.55
2023-01-13T11:04:54.540Z,1.60
2023-01-13T11:07:31.432Z,1.35
2023-01-13T11:10:28.841Z,3.63
2023-01-13T11:13:21.789Z,0.63
2023-01-13T11:15:55.646Z,1.55
2023-01-13T11:18:40.822Z,0.60
2023-01-13T11:21:31.892Z,1.98
2023-01-13T11:24:21.619Z,0.73
2023-01-13T11:27:03.710Z,1.60
2023-01-13T11:32:27.334Z,0.80
2023-01-13T11:37:26.625Z,0.80
2023-01-13T11:40:21.027Z,1.58
2023-01-13T11:43:33.491Z,1.75
2023-01-13T11:46:11.612Z,1.27
2023-01-13T11:48:42.856Z,1.00
2023-01-13T11:51:37.087Z,1.80
2023-01-13T11:54:27.635Z,1.55
2023-01-13T11:56:58.676Z,1.15
2023-01-13T11:59:41.979Z,1.27
2023-01-13T12:02:45.496Z,0.82
2023-01-13T12:06:01.880Z,1.58
2023-01-13T12:09:05.125Z,1.40
2023-01-13T12:12:14.685Z,1.15
2023-01-13T12:14:45.413Z,0.98
2023-01-13T12:17:32.217Z,1.15
2023-01-13T12:20:15.455Z,1.30
2023-01-13T12:22:47.171Z,0.90
2023-01-13T12:25:28.329Z,1.70
2023-01-13T12:28:16.819Z,1.48
2023-01-13T12:31:00.783Z,0.55
2023-01-13T12:33:49.951Z,1.40
2023-01-13T12:36:23.664Z,1.20
2023-01-13T12:39:20.651Z,0.80
2023-01-13T12:42:17.474Z,1.10
2023-01-13T12:45:08.350Z,1.25
2023-01-13T12:47:44.623Z,0.85
2023-01-13T12:50:24.441Z,0.85
2023-01-13T12:52:58.131Z,0.80
2023-01-13T12:55:27.124Z,1.15
2023-01-13T13:00:49.117Z,1.25
2023-01-13T13:03:37.570Z,0.40
2023-01-13T13:06:18.841Z,0.57
2023-01-13T13:09:05.738Z,1.40
2023-01-13T13:11:59.977Z,0.60
2023-01-13T13:14:39.595Z,0.90
2023-01-13T13:17:29.641Z,0.30
2023-01-13T13:20:01.797Z,0.80
2023-01-13T13:22:44.983Z,0.73
2023-01-13T13:25:25.329Z,1.58
2023-01-13T13:28:13.278Z,0.52
2023-01-13T13:30:50.706Z,1.60
2023-01-13T13:33:38.452Z,0.60
2023-01-13T13:39:21.860Z,0.60
2023-01-13T13:42:14.899Z,1.95
2023-01-13T13:45:06.706Z,0.95
2023-01-13T13:47:42.171Z,0.95
2023-01-13T13:50:21.266Z,1.02
2023-01-13T13:52:59.668Z,0.65
2023-01-13T13:55:38.433Z,0.60
2023-01-13T14:00:48.771Z,1.27
2023-01-13T14:03:25.229Z,1.45
2023-01-13T14:05:56.244Z,2.63
2023-01-13T14:08:25.170Z,4.78
2023-01-13T14:10:53.443Z,4.38
2023-01-13T14:16:15.667Z,2.58
2023-01-13T14:18:48.502Z,2.50
2023-01-13T14:21:27.946Z,2.17
2023-01-13T14:24:11.486Z,2.90
2023-01-13T14:26:40.024Z,2.65
2023-01-13T14:29:07.756Z,1.65
2023-01-13T14:31:36.305Z,1.58
2023-01-13T14:34:31.221Z,1.88
2023-01-13T14:36:54.458Z,2.50
2023-01-13T14:39:27.084Z,1.58
2023-01-13T14:41:54.991Z,1.65
2023-01-13T14:44:29.151Z,2.35
2023-01-13T14:46:59.215Z,1.77
2023-01-13T14:49:33.040Z,1.40
2023-01-13T14:52:19.742Z,1.80
2023-01-13T14:54:47.953Z,1.25
2023-01-13T14:57:28.010Z,1.33
2023-01-13T14:59:58.088Z,0.65
2023-01-13T15:02:25.828Z,1.50
2023-01-13T15:04:54.891Z,1.90
2023-01-13T15:07:29.740Z,1.30
2023-01-13T15:10:00.726Z,1.92
2023-01-13T15:12:41.136Z,1.60
2023-01-13T15:15:26.183Z,1.70
2023-01-13T15:17:53.765Z,2.30
2023-01-13T15:20:23.784Z,3.00
2023-01-13T15:22:52.681Z,3.03
2023-01-13T15:28:08.237Z,3.85
2023-01-13T15:30:35.646Z,3.30
2023-01-13T15:33:03.120Z,3.40
2023-01-13T15:35:30.711Z,4.20
2023-01-13T15:40:54.750Z,5.07
2023-01-13T15:43:42.974Z,4.25
2023-01-13T15:49:02.389Z,2.95
2023-01-13T15:51:29.853Z,5.28
2023-01-13T15:54:00.823Z,2.78
2023-01-13T15:59:24.582Z,3.67
2023-01-13T16:01:52.332Z,2.20
2023-01-13T16:04:19.767Z,2.47
2023-01-13T16:06:47.818Z,2.95
2023-01-13T16:09:17.051Z,3.38
2023-01-13T16:11:44.545Z,3.30
2023-01-13T16:14:12.028Z,3.33
2023-01-13T16:16:39.733Z,2.97
2023-01-13T16:19:07.194Z,3.65
2023-01-13T16:21:34.814Z,4.97
2023-01-13T16:24:02.277Z,3.97
2023-01-13T16:26:30.519Z,3.60
2023-01-13T16:28:58.652Z,4.22
2023-01-13T16:31:33.207Z,3.85
2023-01-13T16:34:02.214Z,3.15
2023-01-13T16:36:32.213Z,3.08
2023-01-13T16:38:59.611Z,3.50
2023-01-13T16:41:28.094Z,3.55
2023-01-13T16:43:55.783Z,2.50
2023-01-13T16:49:17.470Z,1.73
2023-01-13T16:54:12.526Z,2.08
2023-01-13T16:59:30.204Z,2.88
2023-01-13T17:01:57.883Z,2.63
2023-01-13T17:04:25.420Z,3.20
2023-01-13T17:07:03.309Z,3.42
2023-01-13T17:09:31.370Z,3.85
2023-01-13T17:11:59.296Z,4.05
2023-01-13T17:14:26.954Z,4.40
2023-01-13T17:16:57.338Z,4.07
2023-01-13T17:19:25.886Z,2.88
2023-01-13T17:21:53.323Z,3.85
2023-01-13T17:27:03.725Z,2.63
2023-01-13T17:29:33.141Z,2.80
2023-01-13T17:32:01.430Z,1.80
2023-01-13T17:34:28.962Z,2.13
2023-01-13T17:36:57.062Z,1.42
2023-01-13T17:39:26.715Z,2.67
2023-01-13T17:41:56.246Z,1.92
2023-01-13T17:44:23.961Z,2.85
2023-01-13T17:46:51.798Z,2.35
2023-01-13T17:49:21.536Z,2.40
2023-01-13T17:51:51.434Z,4.15
2023-01-13T17:54:19.204Z,2.22
2023-01-13T17:56:46.866Z,1.73
2023-01-13T17:59:16.523Z,2.45
2023-01-13T18:01:44.458Z,2.15
2023-01-13T18:04:22.929Z,2.13
2023-01-13T18:06:50.995Z,2.15
2023-01-13T18:09:18.480Z,2.95
2023-01-13T18:11:47.362Z,3.03
2023-01-13T18:14:15.321Z,3.25
2023-01-13T18:16:43.396Z,2.35
2023-01-13T18:19:29.659Z,2.30
2023-01-13T18:22:15.435Z,2.60
2023-01-13T18:25:01.438Z,2.88
2023-01-13T18:27:36.688Z,2.28
2023-01-13T18:30:05.130Z,2.28
2023-01-13T18:32:33.801Z,2.28
2023-01-13T18:35:06.724Z,2.00
2023-01-13T18:37:36.347Z,1.80
2023-01-13T18:40:05.571Z,1.38
2023-01-13T18:45:27.956Z,1.88
2023-01-13T18:47:57.958Z,1.75
2023-01-13T18:50:26.280Z,1.70
2023-01-13T18:52:54.156Z,1.70
2023-01-13T18:55:21.917Z,2.45
2023-01-13T18:57:50.555Z,1.40
2023-01-13T19:00:20.405Z,1.38
2023-01-13T19:02:48.894Z,2.00
2023-01-13T19:05:16.707Z,2.75
2023-01-13T19:07:51.287Z,3.03
2023-01-13T19:10:19.246Z,3.17
2023-01-13T19:12:46.857Z,2.17
2023-01-13T19:15:14.388Z,2.67
2023-01-13T19:17:41.871Z,2.28
2023-01-13T19:20:11.579Z,2.40
2023-01-13T19:22:39.301Z,2.55
2023-01-13T19:25:07.053Z,2.20
2023-01-13T19:27:34.503Z,2.40
2023-01-13T19:30:02.354Z,1.77
2023-01-13T19:32:33.862Z,2.80
2023-01-13T19:35:01.335Z,1.98
2023-01-13T19:37:30.642Z,1.35
2023-01-13T19:39:59.624Z,1.60
2023-01-13T19:42:46.587Z,1.25
2023-01-13T19:45:26.656Z,1.52
2023-01-13T19:47:55.221Z,0.90
2023-01-13T19:50:22.782Z,0.70
2023-01-13T19:52:50.234Z,1.75
2023-01-13T19:55:17.754Z,1.15
2023-01-13T19:57:45.493Z,1.27
2023-01-13T20:00:15.457Z,2.85
2023-01-13T20:02:49.862Z,1.40
2023-01-13T20:05:21.545Z,0.90
2023-01-13T20:07:50.765Z,0.93
2023-01-13T20:10:20.637Z,1.30
2023-01-13T20:12:48.306Z,1.02
2023-01-13T20:15:16.295Z,1.02
2023-01-13T20:17:43.814Z,0.70
2023-01-13T20:20:12.194Z,1.48
2023-01-13T20:22:40.184Z,0.47
2023-01-13T20:25:08.967Z,0.77
2023-01-13T20:27:36.908Z,0.85
2023-01-13T20:30:05.961Z,0.88
2023-01-13T20:32:33.384Z,1.15
2023-01-13T20:35:00.927Z,1.42
2023-01-13T20:37:28.645Z,1.10
2023-01-13T20:39:58.307Z,1.70
2023-01-13T20:42:45.193Z,0.73
2023-01-13T20:45:17.446Z,1.15
2023-01-13T20:47:45.825Z,1.02
2023-01-13T20:50:14.555Z,1.70
2023-01-13T20:52:42.715Z,0.93
2023-01-13T20:55:10.539Z,1.40
2023-01-13T20:57:38.072Z,1.17
2023-01-13T21:00:06.276Z,1.02
2023-01-13T21:02:34.267Z,1.20
2023-01-13T21:05:01.718Z,0.60
2023-01-13T21:07:30.401Z,0.80
2023-01-13T21:09:58.040Z,1.08
2023-01-13T21:12:44.195Z,1.38
2023-01-13T21:15:20.357Z,0.80
2023-01-13T21:18:09.187Z,0.80
2023-01-13T21:20:38.075Z,1.10
2023-01-13T21:23:05.815Z,1.38
2023-01-13T21:25:35.507Z,1.88
2023-01-13T21:28:11.879Z,1.15
2023-01-13T21:30:39.899Z,2.33
2023-01-13T21:33:07.435Z,0.75
2023-01-13T21:35:38.673Z,0.45
2023-01-13T21:38:06.145Z,1.15
2023-01-13T21:40:33.749Z,1.30
2023-01-13T21:43:19.544Z,1.20
2023-01-13T21:46:05.706Z,1.08
2023-01-13T21:48:33.292Z,0.68
2023-01-13T21:51:01.662Z,1.40
2023-01-13T21:53:29.397Z,0.95
2023-01-13T21:55:56.873Z,1.02
2023-01-13T21:58:24.649Z,4.38
2023-01-13T22:00:52.102Z,0.90
2023-01-13T22:03:19.821Z,1.00
2023-01-13T22:05:54.813Z,1.80
2023-01-13T22:08:22.654Z,2.25
2023-01-13T22:10:58.250Z,1.27
2023-01-13T22:16:49.481Z,1.73
2023-01-13T22:19:18.517Z,1.08
2023-01-13T22:21:47.116Z,0.80
2023-01-13T22:24:18.617Z,1.70
2023-01-13T22:26:46.006Z,1.67
2023-01-13T22:29:13.499Z,1.90
2023-01-13T22:31:40.916Z,1.50
2023-01-13T22:34:08.440Z,1.40
2023-01-13T22:36:35.819Z,1.48
2023-01-13T22:39:03.505Z,0.95
2023-01-13T22:41:30.980Z,1.50
2023-01-13T22:43:58.956Z,1.38
2023-01-13T22:46:26.491Z,2.08
2023-01-13T22:51:43.565Z,1.25
2023-01-13T22:54:11.468Z,1.20
2023-01-13T22:56:39.840Z,1.15
2023-01-13T22:59:11.108Z,1.25
2023-01-13T23:01:39.356Z,1.15
2023-01-13T23:04:10.201Z,1.42
2023-01-13T23:06:37.870Z,1.10
2023-01-13T23:09:06.149Z,1.48
2023-01-13T23:11:33.731Z,1.70
2023-01-13T23:14:06.609Z,0.90
2023-01-13T23:16:37.202Z,1.48
2023-01-13T23:19:05.696Z,0.93
2023-01-13T23:21:36.495Z,1.40
2023-01-13T23:24:05.542Z,0.80
2023-01-13T23:26:34.473Z,1.08
2023-01-13T23:29:13.346Z,1.40
2023-01-13T23:34:23.372Z,1.48
2023-01-13T23:36:50.786Z,1.30
2023-01-13T23:39:18.403Z,0.98
2023-01-13T23:41:45.780Z,1.10
2023-01-13T23:44:13.262Z,0.80
2023-01-13T23:46:40.797Z,0.73
2023-01-13T23:49:08.511Z,1.50
2023-01-13T23:51:36.089Z,0.90
2023-01-13T23:54:03.610Z,1.25
2023-01-13T23:56:53.862Z,1.17
2023-01-13T23:59:21.623Z,0.95
